createdAt,value
2023-05-22T00:01:45.319Z,100.00
2023-05-22T00:04:13.477Z,100.00
2023-05-22T00:06:43.809Z,100.00
2023-05-22T00:09:10.569Z,100.00
2023-05-22T00:11:37.195Z,100.00
2023-05-22T00:14:03.888Z,100.00
2023-05-22T00:16:30.683Z,100.00
2023-05-22T00:18:57.738Z,100.00
2023-05-22T00:21:24.689Z,100.00
2023-05-22T00:23:51.329Z,100.00
2023-05-22T00:26:17.978Z,100.00
2023-05-22T00:28:44.618Z,100.00
2023-05-22T00:31:11.502Z,100.00
2023-05-22T00:33:38.380Z,100.00
2023-05-22T00:36:06.006Z,100.00
2023-05-22T00:38:34.291Z,100.00
2023-05-22T00:41:02.805Z,100.00
2023-05-22T00:43:29.549Z,100.00
2023-05-22T00:45:56.407Z,100.00
2023-05-22T00:48:23.642Z,100.00
2023-05-22T00:50:50.889Z,100.00
2023-05-22T00:53:19.652Z,100.00
2023-05-22T00:55:46.308Z,100.00
2023-05-22T00:58:19.287Z,100.00
2023-05-22T01:00:49.117Z,100.00
2023-05-22T01:03:16.313Z,100.00
2023-05-22T01:05:43.804Z,100.00
2023-05-22T01:08:10.618Z,100.00
2023-05-22T01:10:38.181Z,100.00
2023-05-22T01:13:19.105Z,100.00
2023-05-22T01:16:04.911Z,100.00
2023-05-22T01:18:42.610Z,100.00
2023-05-22T01:21:13.662Z,100.00
2023-05-22T01:24:18.287Z,100.00
2023-05-22T01:27:08.303Z,100.00
2023-05-22T01:30:07.211Z,100.00
2023-05-22T01:32:34.425Z,100.00
2023-05-22T01:35:01.931Z,100.00
2023-05-22T01:37:28.699Z,100.00
2023-05-22T01:39:55.865Z,100.00
2023-05-22T01:42:22.748Z,100.00
2023-05-22T01:44:49.452Z,100.00
2023-05-22T01:47:16.965Z,100.00
2023-05-22T01:49:43.576Z,100.00
2023-05-22T01:52:15.563Z,100.00
2023-05-22T01:54:52.760Z,100.00
2023-05-22T01:57:33.122Z,100.00
2023-05-22T02:00:09.747Z,100.00
2023-05-22T02:02:49.568Z,100.00
2023-05-22T02:05:18.446Z,100.00
2023-05-22T02:07:45.515Z,100.00
2023-05-22T02:10:12.467Z,100.00
2023-05-22T02:12:39.153Z,100.00
2023-05-22T02:15:07.110Z,100.00
2023-05-22T02:17:40.634Z,100.00
2023-05-22T02:20:15.123Z,100.00
2023-05-22T02:22:46.797Z,100.00
2023-05-22T02:25:14.959Z,100.00
2023-05-22T02:27:42.913Z,100.00
2023-05-22T02:30:10.173Z,100.00
2023-05-22T02:32:37.555Z,100.00
2023-05-22T02:35:04.993Z,100.00
2023-05-22T02:37:31.745Z,100.00
2023-05-22T02:39:59.070Z,100.00
2023-05-22T02:42:26.076Z,100.00
2023-05-22T02:44:53.735Z,100.00
2023-05-22T02:47:20.481Z,100.00
2023-05-22T02:49:47.390Z,100.00
2023-05-22T02:52:14.694Z,100.00
2023-05-22T02:54:41.952Z,100.00
2023-05-22T02:57:08.651Z,100.00
2023-05-22T02:59:36.832Z,100.00
2023-05-22T03:02:03.866Z,100.00
2023-05-22T03:04:30.731Z,100.00
2023-05-22T03:06:57.424Z,100.00
2023-05-22T03:09:25.543Z,100.00
2023-05-22T03:11:52.188Z,100.00
2023-05-22T03:14:18.819Z,100.00
2023-05-22T03:16:45.513Z,100.00
2023-05-22T03:19:15.910Z,100.00
2023-05-22T03:21:46.038Z,100.00
2023-05-22T03:24:13.196Z,100.00
2023-05-22T03:26:40.008Z,100.00
2023-05-22T03:29:08.773Z,100.00
2023-05-22T03:31:36.176Z,100.00
2023-05-22T03:34:08.729Z,100.00
2023-05-22T03:36:37.110Z,100.00
2023-05-22T03:39:04.134Z,100.00
2023-05-22T03:41:33.001Z,100.00
2023-05-22T03:43:59.978Z,100.00
2023-05-22T03:46:27.182Z,100.00
2023-05-22T03:48:54.118Z,100.00
2023-05-22T03:51:20.759Z,100.00
2023-05-22T03:53:47.467Z,100.00
2023-05-22T03:56:14.588Z,100.00
2023-05-22T03:58:41.287Z,100.00
2023-05-22T04:01:10.109Z,100.00
2023-05-22T04:03:37.911Z,100.00
2023-05-22T04:06:05.895Z,100.00
2023-05-22T04:08:32.726Z,100.00
2023-05-22T04:11:00.446Z,100.00
2023-05-22T04:13:27.371Z,100.00
2023-05-22T04:15:54.149Z,100.00
2023-05-22T04:18:20.991Z,100.00
2023-05-22T04:20:47.874Z,100.00
2023-05-22T04:23:14.563Z,100.00
2023-05-22T04:25:41.291Z,100.00
2023-05-22T04:28:09.446Z,100.00
2023-05-22T04:30:40.428Z,100.00
2023-05-22T04:33:08.554Z,100.00
2023-05-22T04:35:36.165Z,100.00
2023-05-22T04:38:06.594Z,100.00
2023-05-22T04:40:38.092Z,100.00
2023-05-22T04:43:05.208Z,100.00
2023-05-22T04:45:33.026Z,100.00
2023-05-22T04:48:02.588Z,100.00
2023-05-22T04:50:33.054Z,100.00
2023-05-22T04:53:00.056Z,100.00
2023-05-22T04:55:26.850Z,100.00
2023-05-22T04:57:53.763Z,100.00
2023-05-22T05:00:26.389Z,100.00
2023-05-22T05:02:53.595Z,100.00
2023-05-22T05:05:20.591Z,100.00
2023-05-22T05:07:50.057Z,100.00
2023-05-22T05:10:17.735Z,100.00
2023-05-22T05:12:44.429Z,100.00
2023-05-22T05:15:11.225Z,100.00
2023-05-22T05:17:38.430Z,100.00
2023-05-22T05:20:07.642Z,99.83
2023-05-22T05:22:34.672Z,94.26
2023-05-22T05:25:03.768Z,93.02
2023-05-22T05:27:30.760Z,95.89
2023-05-22T05:29:57.452Z,99.59
2023-05-22T05:32:30.427Z,99.45
2023-05-22T05:35:02.929Z,88.65
2023-05-22T05:37:50.073Z,82.34
2023-05-22T05:40:17.282Z,80.07
2023-05-22T05:42:50.153Z,75.80
2023-05-22T05:45:19.029Z,71.77
2023-05-22T05:47:45.956Z,68.97
2023-05-22T05:50:15.636Z,67.67
2023-05-22T05:52:42.951Z,66.54
2023-05-22T05:55:14.372Z,64.98
2023-05-22T05:57:41.489Z,65.34
2023-05-22T06:00:12.583Z,64.03
2023-05-22T06:02:42.303Z,64.02
2023-05-22T06:05:41.919Z,63.02
2023-05-22T06:08:32.323Z,62.72
2023-05-22T06:10:59.280Z,61.90
2023-05-22T06:13:32.695Z,60.99
2023-05-22T06:16:02.753Z,60.86
2023-05-22T06:18:31.339Z,59.62
2023-05-22T06:20:59.187Z,59.33
2023-05-22T06:23:25.999Z,58.56
2023-05-22T06:25:54.043Z,58.04
2023-05-22T06:28:21.386Z,57.40
2023-05-22T06:30:48.363Z,57.71
2023-05-22T06:33:16.802Z,56.86
2023-05-22T06:35:44.480Z,56.95
2023-05-22T06:38:12.389Z,57.13
2023-05-22T06:40:40.243Z,56.46
2023-05-22T06:43:13.260Z,55.71
2023-05-22T06:45:51.061Z,54.78
2023-05-22T06:48:36.210Z,54.51
2023-05-22T06:51:12.899Z,54.13
2023-05-22T06:53:40.746Z,54.16
2023-05-22T06:56:12.289Z,54.32
2023-05-22T06:58:54.860Z,53.17
2023-05-22T07:01:23.774Z,52.20
2023-05-22T07:04:05.192Z,52.02
2023-05-22T07:06:39.138Z,51.78
2023-05-22T07:09:06.459Z,52.33
2023-05-22T07:11:33.582Z,52.65
2023-05-22T07:14:01.472Z,52.54
2023-05-22T07:16:29.986Z,51.38
2023-05-22T07:18:57.303Z,50.93
2023-05-22T07:21:24.292Z,50.33
2023-05-22T07:23:52.443Z,50.28
2023-05-22T07:26:19.236Z,51.39
2023-05-22T07:28:51.414Z,51.07
2023-05-22T07:31:18.124Z,50.19
2023-05-22T07:33:45.448Z,50.19
2023-05-22T07:36:12.581Z,50.31
2023-05-22T07:38:41.048Z,50.88
2023-05-22T07:41:07.894Z,50.40
2023-05-22T07:43:34.734Z,50.06
2023-05-22T07:46:01.871Z,50.36
2023-05-22T07:48:33.878Z,50.81
2023-05-22T07:51:00.849Z,50.75
2023-05-22T07:53:27.574Z,50.63
2023-05-22T07:55:55.954Z,50.95
2023-05-22T07:58:24.241Z,51.06
2023-05-22T08:00:51.411Z,50.97
2023-05-22T08:03:18.818Z,50.26
2023-05-22T08:05:46.547Z,49.23
2023-05-22T08:08:13.367Z,48.26
2023-05-22T08:13:10.562Z,48.12
2023-05-22T08:15:37.197Z,48.56
2023-05-22T08:18:04.009Z,48.59
2023-05-22T08:20:30.921Z,48.67
2023-05-22T08:22:57.659Z,48.00
2023-05-22T08:25:24.330Z,46.74
2023-05-22T08:27:50.982Z,45.54
2023-05-22T08:30:17.851Z,45.32
2023-05-22T08:32:44.661Z,45.55
2023-05-22T08:35:11.442Z,46.21
2023-05-22T08:37:38.100Z,45.71
2023-05-22T08:40:06.132Z,45.41
2023-05-22T08:42:33.099Z,44.92
2023-05-22T08:45:01.189Z,45.69
2023-05-22T08:47:28.575Z,45.87
2023-05-22T08:49:55.641Z,45.21
2023-05-22T08:52:23.192Z,44.89
2023-05-22T08:54:53.197Z,44.14
2023-05-22T08:57:20.552Z,44.45
2023-05-22T08:59:47.420Z,44.05
2023-05-22T09:02:14.113Z,43.15
2023-05-22T09:04:41.222Z,43.40
2023-05-22T09:07:09.187Z,44.21
2023-05-22T09:09:39.076Z,43.81
2023-05-22T09:12:09.222Z,44.21
2023-05-22T09:14:45.135Z,46.35
2023-05-22T09:17:18.649Z,45.95
2023-05-22T09:19:48.296Z,43.45
2023-05-22T09:22:15.198Z,42.73
2023-05-22T09:24:42.536Z,42.65
2023-05-22T09:27:09.863Z,42.47
2023-05-22T09:29:49.928Z,41.74
2023-05-22T09:32:17.740Z,41.48
2023-05-22T09:34:47.940Z,41.19
2023-05-22T09:37:15.853Z,41.16
2023-05-22T09:39:47.087Z,40.88
2023-05-22T09:42:17.970Z,42.01
2023-05-22T09:44:48.765Z,41.64
2023-05-22T09:47:15.682Z,41.19
2023-05-22T09:49:43.366Z,40.76
2023-05-22T09:52:12.512Z,40.31
2023-05-22T09:54:45.647Z,39.91
2023-05-22T09:57:14.080Z,40.78
2023-05-22T09:59:40.946Z,40.29
2023-05-22T10:02:07.714Z,43.04
2023-05-22T10:04:34.575Z,41.16
2023-05-22T10:07:02.433Z,40.18
2023-05-22T10:09:31.352Z,39.30
2023-05-22T10:11:58.690Z,39.37
2023-05-22T10:14:25.499Z,39.34
2023-05-22T10:16:52.719Z,38.90
2023-05-22T10:19:19.614Z,38.55
2023-05-22T10:21:47.392Z,38.01
2023-05-22T10:24:14.023Z,37.61
2023-05-22T10:26:40.739Z,38.90
2023-05-22T10:29:11.057Z,41.87
2023-05-22T10:31:55.791Z,40.45
2023-05-22T10:34:45.364Z,41.16
2023-05-22T10:37:21.758Z,42.30
2023-05-22T10:40:02.148Z,41.68
2023-05-22T10:42:30.919Z,39.20
2023-05-22T10:45:01.373Z,38.67
2023-05-22T10:47:28.155Z,38.46
2023-05-22T10:50:06.715Z,38.48
2023-05-22T10:52:33.554Z,38.33
2023-05-22T10:55:00.460Z,39.53
2023-05-22T10:57:27.470Z,40.00
2023-05-22T11:00:09.995Z,39.28
2023-05-22T11:02:39.537Z,38.83
2023-05-22T11:05:18.612Z,38.19
2023-05-22T11:07:45.467Z,38.87
2023-05-22T11:10:12.227Z,38.96
2023-05-22T11:12:38.881Z,39.34
2023-05-22T11:15:09.864Z,38.83
2023-05-22T11:17:40.038Z,39.00
2023-05-22T11:20:12.537Z,38.59
2023-05-22T11:22:44.279Z,38.39
2023-05-22T11:25:17.931Z,38.46
2023-05-22T11:27:44.730Z,38.57
2023-05-22T11:30:11.897Z,39.55
2023-05-22T11:32:39.855Z,38.95
2023-05-22T11:35:10.061Z,39.49
2023-05-22T11:37:40.521Z,37.77
2023-05-22T11:40:08.117Z,37.23
2023-05-22T11:42:35.566Z,37.18
2023-05-22T11:45:02.836Z,37.63
2023-05-22T11:47:30.224Z,38.04
2023-05-22T11:49:57.722Z,38.18
2023-05-22T11:52:24.382Z,37.94
2023-05-22T11:54:54.156Z,37.82
2023-05-22T11:57:20.894Z,37.72
2023-05-22T11:59:47.586Z,37.88
2023-05-22T12:02:14.578Z,37.83
2023-05-22T12:04:41.414Z,37.40
2023-05-22T12:07:08.462Z,37.70
2023-05-22T12:09:35.141Z,37.29
2023-05-22T12:12:01.807Z,38.39
2023-05-22T12:14:29.202Z,39.80
2023-05-22T12:16:55.926Z,40.93
2023-05-22T12:19:22.712Z,41.59
2023-05-22T12:21:50.166Z,37.99
2023-05-22T12:24:21.636Z,36.94
2023-05-22T12:26:52.644Z,36.74
2023-05-22T12:29:21.721Z,36.91
2023-05-22T12:31:48.438Z,36.69
2023-05-22T12:34:16.240Z,36.44
2023-05-22T12:36:43.660Z,36.38
2023-05-22T12:39:11.208Z,36.26
2023-05-22T12:41:38.548Z,37.08
2023-05-22T12:44:05.915Z,36.24
2023-05-22T12:46:33.734Z,37.29
2023-05-22T12:49:01.167Z,38.14
2023-05-22T12:51:31.837Z,37.88
2023-05-22T12:53:59.063Z,35.87
2023-05-22T12:56:26.499Z,35.38
2023-05-22T12:58:53.635Z,35.55
2023-05-22T13:01:21.835Z,35.70
2023-05-22T13:03:49.158Z,35.46
2023-05-22T13:06:16.639Z,35.28
2023-05-22T13:08:43.837Z,35.43
2023-05-22T13:11:11.331Z,35.45
2023-05-22T13:13:38.562Z,34.83
2023-05-22T13:16:06.036Z,34.74
2023-05-22T13:18:33.281Z,34.26
2023-05-22T13:21:00.725Z,34.29
2023-05-22T13:23:27.903Z,34.16
2023-05-22T13:25:55.298Z,34.24
2023-05-22T13:28:22.517Z,33.95
2023-05-22T13:30:49.700Z,34.14
2023-05-22T13:33:16.915Z,34.14
2023-05-22T13:35:44.753Z,34.20
2023-05-22T13:38:11.947Z,34.16
2023-05-22T13:40:39.216Z,34.30
2023-05-22T13:43:06.370Z,34.11
2023-05-22T13:45:33.874Z,34.78
2023-05-22T13:48:01.572Z,34.63
2023-05-22T13:50:28.890Z,34.06
2023-05-22T13:52:56.597Z,34.25
2023-05-22T13:55:24.000Z,34.10
2023-05-22T13:57:51.748Z,33.94
2023-05-22T14:00:19.750Z,34.34
2023-05-22T14:02:47.456Z,34.30
2023-05-22T14:05:15.167Z,33.84
2023-05-22T14:07:42.432Z,33.75
2023-05-22T14:10:10.313Z,34.25
2023-05-22T14:12:37.531Z,34.35
2023-05-22T14:15:05.382Z,34.47
2023-05-22T14:17:32.544Z,34.30
2023-05-22T14:19:59.981Z,34.11
2023-05-22T14:22:27.196Z,34.28
2023-05-22T14:24:54.359Z,34.64
2023-05-22T14:27:21.522Z,34.32
2023-05-22T14:29:48.726Z,34.90
2023-05-22T14:32:15.997Z,34.82
2023-05-22T14:34:43.192Z,34.44
2023-05-22T14:37:10.536Z,34.36
2023-05-22T14:39:37.671Z,34.35
2023-05-22T14:42:04.894Z,34.70
2023-05-22T14:44:32.087Z,35.01
2023-05-22T14:46:59.654Z,34.66
2023-05-22T14:49:26.939Z,35.27
2023-05-22T14:51:54.679Z,34.79
2023-05-22T14:54:23.702Z,34.63
2023-05-22T14:56:50.931Z,34.44
2023-05-22T14:59:18.639Z,33.98
2023-05-22T15:01:50.125Z,34.31
2023-05-22T15:04:18.040Z,34.30
2023-05-22T15:06:45.471Z,34.76
2023-05-22T15:09:12.602Z,35.21
2023-05-22T15:11:41.043Z,35.48
2023-05-22T15:14:08.211Z,35.20
2023-05-22T15:16:35.656Z,35.24
2023-05-22T15:19:03.411Z,34.79
2023-05-22T15:21:31.452Z,34.96
2023-05-22T15:23:59.016Z,34.50
2023-05-22T15:26:26.405Z,34.52
2023-05-22T15:28:53.537Z,34.90
2023-05-22T15:31:20.735Z,35.04
2023-05-22T15:33:47.959Z,35.38
2023-05-22T15:36:15.186Z,35.95
2023-05-22T15:38:42.641Z,35.62
2023-05-22T15:41:09.730Z,35.28
2023-05-22T15:43:36.950Z,35.70
2023-05-22T15:46:04.179Z,35.49
2023-05-22T15:48:32.954Z,35.63
2023-05-22T15:51:00.460Z,35.66
2023-05-22T15:53:27.639Z,35.94
2023-05-22T15:55:54.850Z,36.17
2023-05-22T15:58:22.289Z,36.52
2023-05-22T16:00:49.620Z,36.56
2023-05-22T16:03:16.974Z,36.35
2023-05-22T16:05:47.105Z,36.25
2023-05-22T16:08:15.509Z,36.24
2023-05-22T16:10:44.494Z,36.47
2023-05-22T16:13:12.174Z,36.52
2023-05-22T16:15:40.096Z,36.65
2023-05-22T16:18:08.044Z,36.86
2023-05-22T16:20:35.889Z,37.02
2023-05-22T16:23:03.167Z,36.96
2023-05-22T16:25:30.384Z,37.27
2023-05-22T16:27:57.726Z,37.35
2023-05-22T16:30:24.913Z,37.79
2023-05-22T16:32:52.158Z,37.88
2023-05-22T16:35:23.693Z,37.98
2023-05-22T16:37:51.027Z,38.22
2023-05-22T16:40:18.750Z,38.34
2023-05-22T16:42:46.032Z,38.44
2023-05-22T16:45:13.315Z,38.94
2023-05-22T16:47:40.690Z,38.99
2023-05-22T16:50:08.705Z,39.07
2023-05-22T16:52:36.770Z,38.93
2023-05-22T16:55:04.757Z,39.22
2023-05-22T16:57:31.977Z,39.49
2023-05-22T16:59:59.182Z,39.45
2023-05-22T17:02:26.473Z,39.69
2023-05-22T17:04:54.577Z,39.82
2023-05-22T17:07:21.993Z,39.99
2023-05-22T17:09:49.171Z,40.28
2023-05-22T17:12:16.491Z,40.63
2023-05-22T17:14:43.876Z,40.50
2023-05-22T17:17:11.123Z,40.90
2023-05-22T17:19:38.530Z,41.12
2023-05-22T17:22:05.979Z,41.50
2023-05-22T17:24:34.152Z,41.47
2023-05-22T17:27:03.463Z,41.64
2023-05-22T17:29:30.708Z,42.04
2023-05-22T17:31:57.984Z,42.10
2023-05-22T17:34:25.332Z,42.61
2023-05-22T17:36:52.589Z,42.44
2023-05-22T17:39:19.793Z,42.76
2023-05-22T17:41:46.967Z,43.12
2023-05-22T17:44:14.184Z,43.40
2023-05-22T17:46:41.652Z,43.78
2023-05-22T17:49:09.449Z,44.08
2023-05-22T17:51:37.375Z,44.45
2023-05-22T17:54:06.258Z,44.60
2023-05-22T17:56:33.477Z,44.91
2023-05-22T17:59:01.361Z,45.41
2023-05-22T18:01:29.586Z,45.75
2023-05-22T18:03:56.908Z,46.00
2023-05-22T18:06:24.528Z,46.13
2023-05-22T18:08:52.025Z,46.21
2023-05-22T18:11:19.356Z,46.74
2023-05-22T18:13:46.781Z,47.40
2023-05-22T18:16:14.468Z,47.54
2023-05-22T18:18:41.971Z,48.04
2023-05-22T18:21:09.144Z,48.08
2023-05-22T18:23:36.374Z,48.63
2023-05-22T18:26:03.577Z,49.21
2023-05-22T18:28:30.818Z,48.85
2023-05-22T18:30:58.095Z,49.27
2023-05-22T18:33:25.383Z,49.61
2023-05-22T18:35:52.768Z,50.54
2023-05-22T18:38:22.052Z,51.20
2023-05-22T18:40:49.240Z,51.32
2023-05-22T18:43:16.458Z,51.62
2023-05-22T18:45:43.814Z,52.26
2023-05-22T18:48:11.229Z,52.07
2023-05-22T18:50:38.943Z,52.53
2023-05-22T18:53:07.026Z,52.82
2023-05-22T18:55:34.426Z,53.53
2023-05-22T18:58:01.655Z,54.31
2023-05-22T19:00:28.852Z,54.49
2023-05-22T19:02:56.414Z,54.67
2023-05-22T19:05:23.664Z,55.11
2023-05-22T19:07:50.890Z,55.40
2023-05-22T19:10:18.126Z,56.42
2023-05-22T19:12:45.351Z,56.78
2023-05-22T19:15:12.529Z,56.66
2023-05-22T19:17:39.781Z,57.60
2023-05-22T19:20:07.758Z,58.20
2023-05-22T19:22:35.023Z,58.34
2023-05-22T19:25:02.921Z,58.91
2023-05-22T19:27:30.391Z,59.36
2023-05-22T19:29:57.606Z,60.03
2023-05-22T19:32:25.060Z,61.36
2023-05-22T19:34:52.277Z,62.20
2023-05-22T19:37:19.614Z,62.65
2023-05-22T19:39:48.450Z,62.67
2023-05-22T19:42:15.811Z,63.01
2023-05-22T19:44:43.032Z,63.45
2023-05-22T19:47:10.296Z,63.28
2023-05-22T19:49:37.985Z,63.66
2023-05-22T19:52:06.063Z,63.45
2023-05-22T19:54:35.376Z,63.83
2023-05-22T19:57:03.101Z,63.64
2023-05-22T19:59:30.573Z,63.80
2023-05-22T20:01:57.836Z,63.99
2023-05-22T20:04:25.103Z,64.95
2023-05-22T20:06:54.123Z,65.21
2023-05-22T20:09:21.653Z,65.65
2023-05-22T20:11:48.781Z,65.90
2023-05-22T20:14:16.086Z,66.45
2023-05-22T20:16:43.556Z,66.69
2023-05-22T20:19:10.971Z,67.41
2023-05-22T20:21:38.346Z,68.03
2023-05-22T20:24:12.074Z,68.60
2023-05-22T20:26:39.355Z,69.03
2023-05-22T20:29:06.599Z,69.80
2023-05-22T20:31:34.841Z,70.78
2023-05-22T20:34:02.406Z,71.48
2023-05-22T20:36:29.774Z,72.05
2023-05-22T20:38:58.544Z,72.59
2023-05-22T20:41:25.922Z,73.10
2023-05-22T20:43:54.526Z,73.50
2023-05-22T20:46:25.171Z,74.69
2023-05-22T20:48:52.523Z,75.14
2023-05-22T20:51:20.598Z,75.36
2023-05-22T20:53:48.417Z,76.46
2023-05-22T20:56:16.300Z,77.59
2023-05-22T20:58:43.660Z,78.69
2023-05-22T21:01:11.036Z,79.14
2023-05-22T21:03:38.324Z,79.59
2023-05-22T21:06:06.247Z,79.89
2023-05-22T21:08:34.231Z,80.69
2023-05-22T21:11:01.510Z,81.43
2023-05-22T21:13:28.725Z,82.56
2023-05-22T21:15:55.914Z,83.54
2023-05-22T21:18:24.298Z,84.66
2023-05-22T21:20:51.712Z,85.95
2023-05-22T21:23:18.920Z,87.40
2023-05-22T21:25:46.101Z,87.63
2023-05-22T21:28:13.280Z,87.55
2023-05-22T21:30:40.643Z,87.80
2023-05-22T21:33:08.231Z,88.14
2023-05-22T21:35:35.699Z,88.17
2023-05-22T21:38:02.912Z,87.23
2023-05-22T21:40:30.089Z,86.47
2023-05-22T21:42:57.275Z,85.75
2023-05-22T21:45:24.438Z,86.20
2023-05-22T21:47:51.675Z,86.17
2023-05-22T21:50:18.972Z,85.75
2023-05-22T21:52:46.152Z,85.41
2023-05-22T21:55:13.404Z,85.65
2023-05-22T21:57:41.118Z,85.95
2023-05-22T22:00:09.170Z,86.39
2023-05-22T22:02:36.431Z,86.87
2023-05-22T22:05:04.346Z,87.98
2023-05-22T22:07:31.533Z,88.53
2023-05-22T22:09:59.091Z,89.33
2023-05-22T22:12:26.516Z,90.11
2023-05-22T22:14:53.996Z,91.08
2023-05-22T22:17:23.701Z,92.45
2023-05-22T22:19:53.565Z,93.28
2023-05-22T22:22:22.827Z,94.30
2023-05-22T22:24:50.201Z,95.16
2023-05-22T22:27:17.711Z,96.31
2023-05-22T22:29:44.895Z,97.44
2023-05-22T22:32:13.058Z,98.89
2023-05-22T22:34:40.532Z,99.94
2023-05-22T22:37:07.929Z,100.00
2023-05-22T22:39:35.116Z,100.00
2023-05-22T22:42:05.162Z,100.00
2023-05-22T22:44:32.477Z,100.00
2023-05-22T22:47:01.852Z,100.00
2023-05-22T22:49:29.175Z,100.00
2023-05-22T22:51:56.617Z,100.00
2023-05-22T22:54:24.010Z,100.00
2023-05-22T22:56:51.499Z,100.00
2023-05-22T22:59:19.092Z,100.00
2023-05-22T23:01:46.417Z,100.00
2023-05-22T23:04:14.016Z,100.00
2023-05-22T23:06:44.701Z,100.00
2023-05-22T23:09:11.894Z,100.00
2023-05-22T23:11:39.128Z,100.00
2023-05-22T23:14:07.618Z,100.00
2023-05-22T23:16:41.066Z,100.00
2023-05-22T23:19:09.405Z,100.00
2023-05-22T23:21:36.909Z,100.00
2023-05-22T23:24:04.547Z,100.00
2023-05-22T23:26:32.114Z,100.00
2023-05-22T23:28:59.648Z,100.00
2023-05-22T23:31:30.744Z,100.00
2023-05-22T23:33:58.635Z,99.99
2023-05-22T23:36:25.969Z,99.95
2023-05-22T23:38:53.136Z,99.84
2023-05-22T23:41:20.293Z,99.81
2023-05-22T23:43:47.717Z,99.99
2023-05-22T23:46:14.993Z,100.00
2023-05-22T23:48:42.670Z,99.97
2023-05-22T23:51:10.033Z,100.00
2023-05-22T23:53:37.549Z,100.00
2023-05-22T23:56:04.745Z,100.00
2023-05-22T23:58:32.326Z,100.00
